TimeEST,TemperatureF,Dew PointF,Humidity,Sea Level PressureIn,VisibilityMPH,Wind Direction,Wind SpeedMPH,Gust SpeedMPH,PrecipitationIn,Events,Conditions,WindDirDegrees,DateUTC
12:21 AM,60.8,59.0,94,29.93,10.0,NNE,5.8,-,0.00,,Overcast,30,2012-11-05 05:21:00
12:43 AM,60.8,59.0,94,29.94,9.0,NNE,3.5,-,0.00,,Overcast,30,2012-11-05 05:43:00
12:56 AM,60.1,59.0,96,29.94,9.0,NE,3.5,-,0.00,,Overcast,40,2012-11-05 05:56:00
1:56 AM,60.1,57.9,93,29.94,6.0,North,9.2,-,N/A,,Overcast,360,2012-11-05 06:56:00
2:27 AM,57.2,57.2,100,29.93,5.0,North,9.2,-,N/A,,Overcast,360,2012-11-05 07:27:00
2:56 AM,55.9,54.0,93,29.94,3.0,North,9.2,-,N/A,,Overcast,360,2012-11-05 07:56:00
3:56 AM,54.0,53.1,97,29.94,0.5,North,9.2,-,N/A,Fog,Fog,10,2012-11-05 08:56:00
4:10 AM,53.6,53.6,100,29.95,2.0,NNE,8.1,-,N/A,,Overcast,30,2012-11-05 09:10:00
4:21 AM,53.6,51.8,94,29.94,6.0,NE,8.1,-,N/A,,Overcast,50,2012-11-05 09:21:00
4:35 AM,53.6,51.8,94,29.95,10.0,NNE,8.1,-,N/A,,Overcast,20,2012-11-05 09:35:00
4:56 AM,54.0,51.1,90,29.96,10.0,NNE,8.1,-,N/A,,Overcast,20,2012-11-05 09:56:00
5:28 AM,53.6,51.8,94,29.97,10.0,NNE,8.1,-,N/A,,Overcast,20,2012-11-05 10:28:00
5:56 AM,53.1,50.0,89,29.98,10.0,North,11.5,-,N/A,,Overcast,360,2012-11-05 10:56:00
6:31 AM,51.8,48.2,88,30.00,10.0,North,10.4,-,N/A,,Overcast,10,2012-11-05 11:31:00
6:56 AM,50.0,46.0,86,30.00,10.0,NNE,11.5,-,N/A,,Mostly Cloudy,30,2012-11-05 11:56:00
7:16 AM,50.0,44.6,82,30.02,10.0,North,10.4,-,N/A,,Mostly Cloudy,10,2012-11-05 12:16:00
7:56 AM,50.0,44.1,80,30.04,10.0,NNE,11.5,-,N/A,,Mostly Cloudy,30,2012-11-05 12:56:00
8:56 AM,51.1,43.0,74,30.05,10.0,NNE,13.8,-,N/A,,Mostly Cloudy,30,2012-11-05 13:56:00
9:56 AM,55.9,43.0,62,30.04,10.0,NE,13.8,-,N/A,,Partly Cloudy,40,2012-11-05 14:56:00
10:56 AM,59.0,43.0,55,30.04,10.0,NNE,13.8,-,N/A,,Clear,30,2012-11-05 15:56:00
11:56 AM,62.1,42.1,48,30.03,10.0,North,10.4,16.1,N/A,,Partly Cloudy,360,2012-11-05 16:56:00
12:56 PM,64.0,41.0,43,30.01,10.0,NE,10.4,-,N/A,,Partly Cloudy,50,2012-11-05 17:56:00
1:56 PM,64.9,42.1,43,30.00,10.0,NNW,8.1,-,N/A,,Partly Cloudy,340,2012-11-05 18:56:00
2:56 PM,64.0,41.0,43,29.99,10.0,North,4.6,-,N/A,,Partly Cloudy,360,2012-11-05 19:56:00
3:56 PM,63.0,39.9,43,30.00,10.0,NNE,8.1,-,N/A,,Partly Cloudy,20,2012-11-05 20:56:00
4:56 PM,60.1,41.0,49,30.00,10.0,North,4.6,-,N/A,,Clear,10,2012-11-05 21:56:00
5:56 PM,55.9,42.1,60,30.01,10.0,NNE,3.5,-,N/A,,Partly Cloudy,20,2012-11-05 22:56:00
6:56 PM,54.0,46.0,75,30.04,10.0,ESE,3.5,-,N/A,,Partly Cloudy,110,2012-11-05 23:56:00
7:56 PM,52.0,46.0,80,30.04,10.0,East,4.6,-,N/A,,Clear,80,2012-11-06 00:56:00
8:56 PM,52.0,46.0,80,30.05,10.0,ENE,5.8,-,N/A,,Scattered Clouds,70,2012-11-06 01:56:00
9:56 PM,50.0,46.0,86,30.04,10.0,NE,3.5,-,N/A,,Mostly Cloudy,50,2012-11-06 02:56:00
10:56 PM,50.0,45.0,83,30.04,10.0,NE,5.8,-,N/A,,Mostly Cloudy,40,2012-11-06 03:56:00
11:56 PM,48.0,43.0,83,30.03,10.0,NE,5.8,-,N/A,,Scattered Clouds,50,2012-11-06 04:56:00